Time;durP1;ratioP1;P1;durP2;ratioP2;P2;SDS_P1;SDS_P2;PMS_P1;PMS_P2;Temp;Humidity;BMP_temperature;BMP_pressure;BME280_temperature;BME280_humidity;BME280_pressure;Samples;Min_cycle;Max_cycle;Signal;HPM_P1;HPM_P2
2021/04/24 00:00:20;;;;;;;5.40;2.58;;;;;;;-1.55;72.53;101973.06;4864963;29;20062;-84
2021/04/24 00:02:46;;;;;;;5.78;2.30;;;;;;;-1.35;72.34;102011.47;4865953;29;20099;-81
2021/04/24 00:05:32;;;;;;;7.70;2.70;;;;;;;-1.87;72.42;101959.13;4865873;29;20014;-82
2021/04/24 00:08:01;;;;;;;4.45;2.20;;;;;;;-1.64;72.19;101990.28;4850648;29;20037;-84
2021/04/24 00:10:29;;;;;;;6.65;1.92;;;;;;;-1.16;72.50;102059.56;4850512;29;20026;-82
2021/04/24 00:12:55;;;;;;;4.85;2.13;;;;;;;-0.30;72.40;102170.63;4864340;29;20018;-84
2021/04/24 00:15:21;;;;;;;4.05;2.00;;;;;;;-0.90;72.44;102078.28;4850743;29;20022;-84
2021/04/24 00:17:47;;;;;;;5.05;1.70;;;;;;;-0.31;71.86;102138.03;4865761;29;20037;-85
2021/04/24 00:20:17;;;;;;;4.60;1.50;;;;;;;0.01;70.71;102134.31;4849582;29;20063;-84
2021/04/24 00:22:43;;;;;;;4.20;1.50;;;;;;;-0.36;70.91;102067.88;4852189;29;20024;-83
2021/04/24 00:25:11;;;;;;;2.67;1.40;;;;;;;-0.49;70.43;102039.56;4868410;29;20031;-84
2021/04/24 00:27:38;;;;;;;2.50;1.30;;;;;;;-0.85;69.67;101974.00;4851869;29;20010;-83
2021/04/24 00:30:06;;;;;;;1.30;0.95;;;;;;;-0.72;68.50;102003.16;4868937;29;20037;-85
2021/04/24 00:32:31;;;;;;;5.82;1.23;;;;;;;-0.18;68.23;102081.72;4852533;29;20042;-83
2021/04/24 00:34:57;;;;;;;2.00;0.90;;;;;;;-0.41;67.06;102022.38;4867234;29;20034;-82
2021/04/24 00:37:23;;;;;;;1.65;1.05;;;;;;;1.14;66.50;102260.19;4867064;29;20063;-82
2021/04/24 00:39:49;;;;;;;3.15;1.05;;;;;;;-0.41;66.34;102006.50;4862722;29;20026;-82
2021/04/24 00:42:16;;;;;;;2.00;1.10;;;;;;;-0.65;66.20;101980.69;4864572;29;20038;-83
2021/04/24 00:44:48;;;;;;;2.83;0.85;;;;;;;-0.06;66.24;102070.38;4850306;29;20042;-83
2021/04/24 00:47:17;;;;;;;1.52;0.93;;;;;;;-0.09;66.01;102065.28;5303889;24;20050;-85
2021/04/24 00:49:42;;;;;;;4.43;1.27;;;;;;;-0.63;65.44;101984.09;4814446;29;20046;-83
2021/04/24 00:52:08;;;;;;;1.25;0.90;;;;;;;-0.06;65.60;102071.22;4798270;29;20043;-85
2021/04/24 00:54:34;;;;;;;1.90;0.85;;;;;;;0.26;65.57;102141.53;4783647;29;20031;-83
2021/04/24 00:59:40;;;;;;;2.17;0.90;;;;;;;-0.80;65.63;101989.56;5041920;24;20058;-84
2021/04/24 01:02:07;;;;;;;1.20;0.63;;;;;;;-0.86;65.54;101989.94;4871211;29;20024;-84
2021/04/24 01:07:08;;;;;;;2.30;0.60;;;;;;;-0.75;65.47;102016.56;4893428;24;20407;-82
2021/04/24 01:09:34;;;;;;;2.75;0.70;;;;;;;-0.66;65.14;102039.78;4835693;29;20228;-84
2021/04/24 01:12:01;;;;;;;1.15;0.60;;;;;;;1.00;64.38;102292.09;4833308;29;20251;-83
2021/04/24 01:14:28;;;;;;;1.17;0.47;;;;;;;-0.38;63.17;102041.53;4843372;29;20040;-85
2021/04/24 01:16:56;;;;;;;1.38;0.52;;;;;;;-0.62;63.48;101992.88;4848541;29;20031;-83
2021/04/24 01:19:25;;;;;;;0.85;0.32;;;;;;;0.91;62.89;102181.38;4849511;29;20026;-83
2021/04/24 01:22:05;;;;;;;0.50;0.30;;;;;;;0.51;62.15;102101.06;4823200;29;20038;-83
2021/04/24 01:24:30;;;;;;;0.63;0.30;;;;;;;0.91;61.19;102107.16;4815514;29;20023;-84
2021/04/24 01:26:56;;;;;;;1.00;0.40;;;;;;;0.50;59.52;102025.19;4833046;29;20048;-84
2021/04/24 01:29:23;;;;;;;0.68;0.20;;;;;;;1.57;58.82;102174.22;4845383;29;20018;-82
2021/04/24 01:31:50;;;;;;;0.40;0.20;;;;;;;2.33;58.06;102316.66;4830725;29;20350;-84
2021/04/24 01:34:16;;;;;;;1.20;0.30;;;;;;;1.05;56.23;102080.56;4832690;29;20084;-84
2021/04/24 01:36:42;;;;;;;0.25;0.20;;;;;;;0.51;55.88;102005.72;4838836;29;20027;-82
2021/04/24 01:39:10;;;;;;;0.50;0.20;;;;;;;0.53;55.90;101975.53;4848859;29;20038;-81
2021/04/24 01:41:36;;;;;;;0.30;0.20;;;;;;;2.54;56.24;102320.44;4849180;29;20021;-83
2021/04/24 01:44:03;;;;;;;0.63;0.15;;;;;;;0.93;56.06;102016.03;4847520;29;20081;-82
2021/04/24 01:46:30;;;;;;;1.63;0.20;;;;;;;0.52;56.21;101975.63;4849076;29;20065;-83
2021/04/24 01:48:56;;;;;;;0.50;0.15;;;;;;;0.93;57.12;102050.47;4849050;29;20049;-83
2021/04/24 01:51:22;;;;;;;1.15;0.30;;;;;;;2.50;57.29;102316.31;4849575;29;20034;-83
2021/04/24 01:53:49;;;;;;;1.05;0.45;;;;;;;2.56;56.45;102307.06;4850141;29;20019;-83
2021/04/24 01:56:16;;;;;;;1.08;0.38;;;;;;;0.98;56.32;102058.09;4849313;29;20041;-83
2021/04/24 01:58:41;;;;;;;0.85;0.30;;;;;;;1.16;55.95;102123.09;4849195;29;20053;-82
2021/04/24 02:01:11;;;;;;;1.55;0.40;;;;;;;1.14;57.02;102132.94;4849072;29;20019;-82
2021/04/24 02:03:37;;;;;;;1.02;0.38;;;;;;;0.98;57.34;102118.19;4865827;29;20034;-83
2021/04/24 02:06:04;;;;;;;2.30;0.40;;;;;;;2.08;58.20;102334.28;4881760;29;20062;-83
2021/04/24 02:08:40;;;;;;;3.00;0.40;;;;;;;1.95;59.14;102348.50;4858562;29;20046;-83
2021/04/24 02:11:07;;;;;;;0.50;0.20;;;;;;;0.73;57.51;102116.34;4849179;29;20098;-84
2021/04/24 02:13:38;;;;;;;1.38;0.20;;;;;;;0.19;56.10;101990.19;4833769;29;20019;-84
2021/04/24 02:16:08;;;;;;;2.35;0.30;;;;;;;0.92;56.98;102082.34;4866959;29;20042;-83
2021/04/24 02:18:34;;;;;;;0.95;0.30;;;;;;;0.65;56.70;102064.75;4851654;29;20024;-84
2021/04/24 02:21:01;;;;;;;0.90;0.22;;;;;;;0.99;55.62;102117.25;4852967;29;20018;-83
2021/04/24 02:23:33;;;;;;;1.55;0.28;;;;;;;1.44;54.71;102181.34;4818386;29;20024;-84
2021/04/24 02:25:59;;;;;;;1.17;0.20;;;;;;;1.18;56.06;102144.19;4839019;29;20017;-83
2021/04/24 02:28:26;;;;;;;0.82;0.20;;;;;;;1.35;55.75;102198.72;4867634;29;20065;-84
2021/04/24 02:30:52;;;;;;;1.23;0.20;;;;;;;0.52;55.64;102060.38;4835896;29;20025;-83
2021/04/24 02:33:18;;;;;;;0.82;0.20;;;;;;;0.44;54.65;102037.06;4866859;29;20037;-82
2021/04/24 02:35:50;;;;;;;0.40;0.20;;;;;;;2.29;55.59;102318.69;4866124;29;20021;-83
2021/04/24 02:38:20;;;;;;;0.80;0.15;;;;;;;0.08;55.74;101976.84;4866967;29;20018;-84
2021/04/24 02:40:47;;;;;;;0.10;0.10;;;;;;;0.41;55.81;102035.47;4867604;29;20045;-84
2021/04/24 02:43:14;;;;;;;0.52;0.30;;;;;;;0.90;55.41;102089.59;4850429;29;20017;-84
2021/04/24 02:45:40;;;;;;;0.40;0.20;;;;;;;0.34;55.45;101991.81;4866920;29;20102;-83
2021/04/24 02:48:07;;;;;;;1.08;0.20;;;;;;;0.92;56.09;102122.09;4851181;29;20021;-84
2021/04/24 02:50:33;;;;;;;0.22;0.10;;;;;;;0.41;56.19;102042.56;4849067;29;20044;-84
2021/04/24 02:52:59;;;;;;;0.63;0.15;;;;;;;0.01;55.58;101968.47;4817525;29;20022;-83
2021/04/24 02:55:26;;;;;;;0.20;0.10;;;;;;;0.68;55.00;102088.38;4864252;29;20089;-82
2021/04/24 02:57:52;;;;;;;0.65;0.20;;;;;;;0.07;54.77;101998.97;4866652;29;20026;-82
2021/04/24 03:00:20;;;;;;;0.50;0.10;;;;;;;0.04;54.68;102013.25;4851395;29;20024;-83
2021/04/24 03:02:45;;;;;;;0.65;0.20;;;;;;;-0.20;54.54;101969.88;4866889;29;20033;-84
2021/04/24 03:05:17;;;;;;;1.27;0.22;;;;;;;1.95;54.99;102345.88;4869238;29;20042;-80
2021/04/24 03:07:44;;;;;;;0.70;0.13;;;;;;;0.39;54.98;102095.59;4851407;29;20054;-83
2021/04/24 03:10:12;;;;;;;0.40;0.20;;;;;;;1.83;54.78;102335.13;5678240;24;20021;-79
2021/04/24 03:12:39;;;;;;;1.40;0.20;;;;;;;-0.22;54.49;102022.03;4831054;29;20046;-83
2021/04/24 03:15:07;;;;;;;1.48;0.22;;;;;;;-0.44;53.97;101981.09;4814584;29;20030;-81
2021/04/24 03:17:33;;;;;;;0.77;0.20;;;;;;;0.49;54.34;102145.31;4830426;29;20078;-82
2021/04/24 03:19:59;;;;;;;0.60;0.10;;;;;;;1.00;54.81;102227.63;4823177;29;20038;-82
2021/04/24 03:22:24;;;;;;;0.75;0.35;;;;;;;0.55;54.33;102168.75;4832624;29;20026;-84
2021/04/24 03:24:50;;;;;;;1.10;0.20;;;;;;;-0.45;54.75;102008.50;4819483;29;20047;-83
2021/04/24 03:27:16;;;;;;;1.17;0.13;;;;;;;0.26;55.63;102158.25;4843371;29;20027;-83
2021/04/24 03:29:43;;;;;;;0.70;0.20;;;;;;;-0.72;55.66;101987.31;4845179;29;20067;-83
2021/04/24 03:32:09;;;;;;;0.10;0.00;;;;;;;1.45;56.17;102366.03;4848410;29;20018;-83
2021/04/24 03:34:36;;;;;;;1.58;0.20;;;;;;;-0.06;56.70;102123.28;4847460;29;20050;-83
2021/04/24 03:37:02;;;;;;;0.80;0.10;;;;;;;-0.33;57.03;102073.84;4831807;29;20275;-83
2021/04/24 03:39:27;;;;;;;0.25;0.10;;;;;;;1.32;56.50;102342.97;4838441;29;20034;-81
2021/04/24 03:41:53;;;;;;;0.57;0.30;;;;;;;-0.54;56.25;102040.78;4821768;29;20064;-83
2021/04/24 03:44:19;;;;;;;0.70;0.10;;;;;;;-0.31;57.03;102100.16;4824453;29;20027;-83
2021/04/24 03:46:45;;;;;;;0.55;0.30;;;;;;;-0.43;56.77;102071.84;4812431;29;20107;-83
2021/04/24 03:49:13;;;;;;;0.10;0.08;;;;;;;0.36;56.76;102208.81;4819638;29;20022;-83
2021/04/24 03:51:39;;;;;;;1.67;0.30;;;;;;;0.42;56.83;102222.50;4811664;29;20042;-83
2021/04/24 03:54:07;;;;;;;0.43;0.20;;;;;;;-0.21;57.13;102133.03;4821608;29;20118;-83
2021/04/24 03:56:34;;;;;;;1.70;0.20;;;;;;;-0.94;56.86;102027.41;4830834;29;20051;-83
2021/04/24 03:58:59;;;;;;;0.75;0.10;;;;;;;-0.87;57.13;102047.22;4851700;29;20018;-84
2021/04/24 04:01:25;;;;;;;0.50;0.10;;;;;;;0.33;56.74;102211.66;4832794;29;20037;-83
2021/04/24 04:03:51;;;;;;;1.17;0.20;;;;;;;-0.18;54.35;102034.97;4817862;29;20039;-84
2021/04/24 04:06:17;;;;;;;1.00;0.20;;;;;;;1.01;53.16;102113.53;4829994;29;20022;-83
2021/04/24 04:08:44;;;;;;;0.20;0.20;;;;;;;1.47;51.93;102107.69;4835901;29;20042;-83
2021/04/24 04:11:09;;;;;;;1.40;0.20;;;;;;;3.52;50.90;102377.09;4838971;29;20046;-83
2021/04/24 04:13:35;;;;;;;0.85;0.30;;;;;;;2.80;49.95;102278.69;4820265;29;20057;-83
2021/04/24 04:16:01;;;;;;;0.47;0.15;;;;;;;1.47;49.60;102045.84;4816804;29;20060;-82
2021/04/24 04:18:32;;;;;;;0.93;0.30;;;;;;;3.09;49.18;102257.09;4844884;29;20019;-80
2021/04/24 04:20:59;;;;;;;0.75;0.20;;;;;;;2.14;48.61;102085.22;4825140;29;20031;-80
2021/04/24 04:23:25;;;;;;;1.08;0.30;;;;;;;3.06;48.55;102196.16;4826770;29;20030;-81
2021/04/24 04:25:51;;;;;;;3.00;0.50;;;;;;;3.74;48.16;102274.31;4808640;29;20120;-80
2021/04/24 04:28:17;;;;;;;0.93;0.20;;;;;;;4.37;47.62;102394.63;4837282;29;20026;-80
2021/04/24 04:30:44;;;;;;;0.40;0.20;;;;;;;3.59;47.61;102270.19;4840289;29;20042;-81
2021/04/24 04:33:12;;;;;;;2.40;0.40;;;;;;;3.47;47.87;102269.28;4816491;29;20084;-82
2021/04/24 04:35:39;;;;;;;1.05;0.20;;;;;;;2.46;47.55;102073.06;4843456;29;20067;-81
2021/04/24 04:38:05;;;;;;;1.40;0.22;;;;;;;3.66;47.37;102232.31;4837235;29;20120;-81
2021/04/24 04:40:32;;;;;;;0.77;0.20;;;;;;;3.02;46.35;102125.56;4825779;29;20034;-83
2021/04/24 04:42:58;;;;;;;1.88;0.30;;;;;;;4.65;46.05;102409.31;4833544;29;20026;-82
2021/04/24 04:45:26;;;;;;;2.15;0.30;;;;;;;3.49;46.60;102184.88;4849779;29;20337;-82
2021/04/24 04:47:53;;;;;;;1.38;0.20;;;;;;;2.89;45.81;102099.03;4841303;29;20022;-81
2021/04/24 04:50:23;;;;;;;1.05;0.20;;;;;;;3.46;45.95;102180.63;4842741;29;20487;-81
2021/04/24 04:52:50;;;;;;;1.00;0.15;;;;;;;4.24;45.58;102281.03;4832645;29;20035;-81
2021/04/24 04:55:16;;;;;;;0.75;0.13;;;;;;;3.83;45.19;102182.22;4840621;29;20022;-81
2021/04/24 04:57:42;;;;;;;0.65;0.10;;;;;;;5.30;45.35;102389.84;4825494;29;20034;-81
2021/04/24 05:00:11;;;;;;;1.13;0.28;;;;;;;3.11;44.57;102050.34;4843316;29;20034;-81
2021/04/24 05:02:37;;;;;;;0.47;0.20;;;;;;;3.27;44.89;102045.53;4830498;29;20045;-80
2021/04/24 05:05:03;;;;;;;0.90;0.22;;;;;;;3.35;44.22;102052.09;4833868;29;20388;-81
2021/04/24 05:07:29;;;;;;;1.35;0.30;;;;;;;5.41;44.66;102391.63;4839697;29;20509;-79
2021/04/24 05:09:54;;;;;;;0.80;0.20;;;;;;;3.68;44.51;102105.28;4823235;29;20069;-80
2021/04/24 05:12:20;;;;;;;1.67;0.30;;;;;;;4.31;44.03;102153.47;4826532;29;20034;-81
2021/04/24 05:14:47;;;;;;;1.65;0.20;;;;;;;3.70;43.99;102082.03;4846998;29;20049;-82
2021/04/24 05:17:12;;;;;;;0.73;0.20;;;;;;;2.26;44.54;102002.84;4854485;29;20018;-81
2021/04/24 05:19:41;;;;;;;2.22;0.20;;;;;;;1.74;48.65;102128.78;4828169;29;20061;-80
2021/04/24 05:22:07;;;;;;;1.48;0.32;;;;;;;1.45;49.19;102103.44;4838813;29;20034;-81
2021/04/24 05:24:32;;;;;;;1.02;0.20;;;;;;;2.06;49.48;102227.34;4852416;29;20109;-81
2021/04/24 05:26:59;;;;;;;0.68;0.20;;;;;;;0.86;49.93;102094.25;4851601;29;20037;-82
2021/04/24 05:29:25;;;;;;;2.90;0.70;;;;;;;1.05;49.36;102071.75;4844997;29;20042;-81
2021/04/24 05:31:53;;;;;;;0.98;0.13;;;;;;;2.38;48.67;102338.41;4829839;29;20030;-82
2021/04/24 05:34:20;;;;;;;1.15;0.30;;;;;;;1.42;49.35;102176.13;4829285;29;20034;-81
2021/04/24 05:36:47;;;;;;;2.05;0.35;;;;;;;2.27;49.23;102291.38;4829116;29;20071;-81
2021/04/24 05:39:13;;;;;;;0.85;0.13;;;;;;;1.25;48.95;102131.38;4831715;29;20030;-81
2021/04/24 05:41:39;;;;;;;1.40;0.22;;;;;;;0.93;48.78;102081.44;4846756;29;20039;-81
2021/04/24 05:44:06;;;;;;;0.82;0.20;;;;;;;1.52;48.57;102155.13;4840640;29;20041;-80
2021/04/24 05:46:32;;;;;;;0.70;0.20;;;;;;;2.73;48.68;102378.44;4829807;29;20033;-80
2021/04/24 05:48:58;;;;;;;1.48;0.20;;;;;;;0.83;47.77;102085.63;4845138;29;20078;-81
2021/04/24 05:51:25;;;;;;;0.82;0.25;;;;;;;2.07;48.07;102270.69;4848548;29;20022;-82
2021/04/24 05:53:53;;;;;;;0.85;0.13;;;;;;;1.24;48.35;102100.50;4843177;29;20030;-81
2021/04/24 05:56:21;;;;;;;0.68;0.20;;;;;;;1.71;48.00;102171.44;4843437;29;20050;-80
2021/04/24 05:58:48;;;;;;;0.40;0.20;;;;;;;1.30;48.06;102084.19;4842285;29;20018;-81
2021/04/24 06:01:14;;;;;;;0.50;0.20;;;;;;;1.23;47.64;102078.44;4823278;29;20038;-79
2021/04/24 06:03:40;;;;;;;0.40;0.20;;;;;;;2.93;47.41;102366.38;4838372;29;20033;-80
2021/04/24 06:06:06;;;;;;;0.80;0.20;;;;;;;3.36;47.45;102418.25;4847550;29;20022;-81
2021/04/24 06:08:32;;;;;;;3.63;0.32;;;;;;;3.37;47.24;102409.31;4804024;29;20538;-79
2021/04/24 06:10:58;;;;;;;1.60;0.30;;;;;;;2.97;47.27;102324.47;4822023;29;20036;-82
2021/04/24 06:13:24;;;;;;;0.47;0.13;;;;;;;3.43;46.76;102385.75;4818128;29;20065;-80
2021/04/24 06:18:26;;;;;;;0.80;0.20;;;;;;;2.19;46.86;102192.81;4911939;24;20043;-82
2021/04/24 06:20:52;;;;;;;1.10;0.30;;;;;;;1.30;45.62;102086.81;4826888;29;20034;-80
2021/04/24 06:23:18;;;;;;;0.93;0.20;;;;;;;2.17;45.50;102193.88;4825109;29;20589;-83
2021/04/24 06:25:44;;;;;;;2.85;0.30;;;;;;;1.39;46.04;102057.84;4840789;29;20061;-81
2021/04/24 06:28:09;;;;;;;0.77;0.20;;;;;;;1.69;46.35;102124.75;4840403;29;20095;-81
2021/04/24 06:30:35;;;;;;;0.52;0.20;;;;;;;2.57;45.22;102211.25;4834997;29;20029;-82
2021/04/24 06:45:58;;;;;;;0.60;0.20;;;;;;;1.97;45.73;102066.06;5289854;24;20042;-83
2021/04/24 06:48:24;;;;;;;0.28;0.10;;;;;;;2.24;45.26;102078.28;4848538;29;20038;-85
2021/04/24 06:56:00;;;;;;;0.88;0.20;;;;;;;1.78;43.25;102020.59;5366433;24;20055;-84
2021/04/24 07:03:38;;;;;;;1.50;0.30;;;;;;;3.26;44.20;102261.97;5684972;24;21114;-83
2021/04/24 07:11:14;;;;;;;0.40;0.20;;;;;;;3.41;44.27;102288.38;5696034;24;20046;-84
2021/04/24 07:13:40;;;;;;;0.40;0.20;;;;;;;3.06;42.86;102173.06;4799864;29;20020;-84
2021/04/24 07:16:10;;;;;;;2.67;0.30;;;;;;;2.95;43.11;102158.91;4829739;29;20066;-83
2021/04/24 07:18:36;;;;;;;1.27;0.20;;;;;;;2.90;42.59;102143.28;4813926;29;20041;-85
2021/04/24 07:21:02;;;;;;;1.60;0.40;;;;;;;2.72;43.13;102079.06;5559448;24;20812;-80
2021/04/24 07:28:40;;;;;;;2.20;0.30;;;;;;;3.26;43.40;102195.47;5217550;24;20065;-84
2021/04/24 07:41:26;;;;;;;0.70;0.20;;;;;;;3.38;43.41;102144.94;5299326;24;20042;-83
2021/04/24 07:43:53;;;;;;;1.05;0.30;;;;;;;3.48;43.29;102185.84;4847427;29;20042;-84
2021/04/24 07:48:56;;;;;;;0.55;0.10;;;;;;;2.78;43.77;102049.38;5712665;24;20262;-84
2021/04/24 07:51:22;;;;;;;1.38;0.20;;;;;;;2.90;42.63;102052.88;4832263;29;20019;-82
2021/04/24 07:53:48;;;;;;;1.40;0.30;;;;;;;4.34;42.05;102328.22;4847945;29;20046;-84
2021/04/24 07:56:14;;;;;;;1.55;0.25;;;;;;;4.59;42.75;102336.00;4832021;29;20029;-83
2021/04/24 07:58:40;;;;;;;0.52;0.20;;;;;;;3.06;42.67;102079.13;4831782;29;20029;-83
2021/04/24 08:01:06;;;;;;;1.38;0.22;;;;;;;3.00;41.39;102087.59;4831701;29;20445;-83
2021/04/24 08:03:32;;;;;;;2.00;0.30;;;;;;;5.10;40.96;102410.13;4830489;29;20110;-84
2021/04/24 08:05:57;;;;;;;1.88;0.10;;;;;;;3.35;40.85;102123.91;4846219;29;20030;-83
2021/04/24 08:08:23;;;;;;;1.67;0.30;;;;;;;3.75;40.96;102202.31;4840293;29;20030;-84
2021/04/24 08:10:49;;;;;;;0.85;0.22;;;;;;;3.57;40.74;102139.88;4832822;29;20038;-83
2021/04/24 08:13:17;;;;;;;2.75;0.30;;;;;;;3.36;41.03;102114.94;4817532;29;20045;-84
2021/04/24 08:15:44;;;;;;;1.70;0.30;;;;;;;4.44;41.05;102268.78;4818758;29;20065;-84
2021/04/24 08:18:10;;;;;;;0.95;0.25;;;;;;;3.04;41.03;102025.22;4834374;29;20062;-84
2021/04/24 08:20:37;;;;;;;1.20;0.20;;;;;;;3.67;41.06;102142.66;4835669;29;20034;-83
2021/04/24 08:23:03;;;;;;;0.65;0.30;;;;;;;3.35;40.44;102068.03;4843389;29;20094;-83
2021/04/24 08:25:29;;;;;;;1.10;0.20;;;;;;;4.26;39.52;102216.09;4819464;29;20440;-83
2021/04/24 08:27:55;;;;;;;1.00;0.28;;;;;;;3.65;41.00;102120.66;4828488;29;20007;-83
2021/04/24 08:30:21;;;;;;;1.80;0.30;;;;;;;3.18;41.33;102072.00;4846869;29;20049;-84
2021/04/24 08:32:47;;;;;;;1.38;0.30;;;;;;;4.03;42.00;102209.94;4839667;29;20050;-83
2021/04/24 08:35:14;;;;;;;0.85;0.38;;;;;;;2.88;43.36;102025.59;4836625;29;20038;-84
2021/04/24 08:37:41;;;;;;;0.77;0.17;;;;;;;3.33;42.39;102104.56;4816812;29;20105;-84
2021/04/24 08:40:10;;;;;;;0.70;0.30;;;;;;;5.09;42.54;102378.22;4847416;29;20025;-84
2021/04/24 08:42:38;;;;;;;0.88;0.35;;;;;;;3.36;42.37;102106.97;4848886;29;20034;-83
2021/04/24 08:45:18;;;;;;;0.88;0.20;;;;;;;2.96;42.98;102041.78;5162666;24;20042;-85
2021/04/24 08:48:19;;;;;;;0.95;0.20;;;;;;;5.24;43.22;102381.47;5414729;24;20021;31
2021/04/24 08:50:47;;;;;;;2.45;0.30;;;;;;;5.18;41.12;102386.34;4790058;29;20034;-84
2021/04/24 08:53:17;;;;;;;1.40;0.30;;;;;;;3.34;41.40;102096.44;4799044;29;20074;-83
2021/04/24 08:55:43;;;;;;;2.40;0.32;;;;;;;5.13;40.73;102379.66;4809303;29;20019;-83
2021/04/24 08:58:09;;;;;;;0.70;0.38;;;;;;;5.23;40.92;102369.97;5162854;24;20065;-85
2021/04/24 09:57:51;;;;;;;0.85;0.40;;;;;;;5.77;44.36;102325.44;3704586;24;20208;-78
2021/04/24 10:05:28;;;;;;;1.88;0.35;;;;;;;5.65;43.16;102325.47;4903894;24;20055;-82
2021/04/24 10:07:56;;;;;;;1.95;0.55;;;;;;;4.88;43.89;102175.44;4810482;29;20051;-81
2021/04/24 10:10:31;;;;;;;1.85;0.50;;;;;;;5.59;47.79;102339.34;4827818;29;20016;-80
2021/04/24 10:13:03;;;;;;;3.03;0.50;;;;;;;4.32;50.45;102157.00;4857944;29;20034;-83
2021/04/24 10:15:47;;;;;;;1.80;0.50;;;;;;;5.07;48.30;102252.13;4833316;29;20011;-81
2021/04/24 10:18:16;;;;;;;2.22;0.52;;;;;;;4.35;49.30;102135.41;4847004;29;20038;-81
2021/04/24 10:20:44;;;;;;;1.85;0.50;;;;;;;4.31;47.79;102121.50;4845145;29;20566;-82
2021/04/24 10:23:12;;;;;;;3.42;0.68;;;;;;;4.13;50.99;102117.66;4840737;29;20044;-82
2021/04/24 10:25:39;;;;;;;2.90;0.40;;;;;;;4.42;49.11;102158.75;4866300;29;20018;-80
2021/04/24 10:28:05;;;;;;;2.83;0.70;;;;;;;4.61;51.41;102206.09;4847964;29;20116;-84
2021/04/24 10:30:31;;;;;;;4.82;0.45;;;;;;;3.57;50.33;102033.41;4830241;29;20078;-83
2021/04/24 10:32:57;;;;;;;2.65;0.40;;;;;;;4.64;48.34;102221.00;4847250;29;20014;-84
2021/04/24 10:38:01;;;;;;;1.75;0.40;;;;;;;3.34;48.86;101994.50;5366083;24;20042;-82
2021/04/24 10:40:27;;;;;;;1.40;0.35;;;;;;;3.89;47.99;102077.91;5032144;24;20070;-80
2021/04/24 10:42:55;;;;;;;2.50;0.50;;;;;;;4.71;48.17;102199.03;4887453;24;20522;-83
2021/04/24 10:45:32;;;;;;;1.95;0.45;;;;;;;3.58;49.34;102005.00;5539848;23;20058;-79
2021/04/24 10:47:58;;;;;;;1.83;0.82;;;;;;;3.39;49.75;101987.84;5038944;24;20042;-82
2021/04/24 10:50:43;;;;;;;2.03;0.50;;;;;;;5.51;48.02;102317.78;4843796;29;20054;-79
2021/04/24 10:53:41;;;;;;;3.03;0.40;;;;;;;4.69;48.65;102187.63;4841177;29;20022;-83
2021/04/24 10:56:06;;;;;;;1.05;0.43;;;;;;;5.38;46.95;102301.09;4836337;29;20145;-79
2021/04/24 10:58:33;;;;;;;3.03;0.50;;;;;;;3.86;48.51;102055.03;4796444;29;20421;-81
2021/04/24 11:01:01;;;;;;;2.20;0.40;;;;;;;5.53;46.89;102331.00;4824829;29;20461;-81
2021/04/24 11:03:51;;;;;;;3.20;0.50;;;;;;;5.52;46.08;102300.78;4834855;29;20029;-80
2021/04/24 11:06:22;;;;;;;1.77;0.45;;;;;;;4.74;46.39;102218.44;4832850;29;20033;-80
2021/04/24 11:08:51;;;;;;;4.47;0.40;;;;;;;5.54;47.58;102320.22;4826965;29;20042;-81
2021/04/24 11:11:36;;;;;;;1.63;0.35;;;;;;;5.52;46.47;102330.16;4804112;29;20091;-78
2021/04/24 11:14:02;;;;;;;3.10;0.57;;;;;;;5.45;48.03;102312.13;4816896;29;20034;-79
2021/04/24 11:16:32;;;;;;;2.30;0.55;;;;;;;5.54;50.45;102298.84;4814794;29;20057;-78
2021/04/24 11:18:58;;;;;;;3.17;0.50;;;;;;;5.52;49.93;102334.66;4828473;29;20231;-80
2021/04/24 11:21:29;;;;;;;1.02;0.35;;;;;;;5.10;49.07;102249.19;4832591;29;20034;-79
2021/04/24 11:24:14;;;;;;;2.55;0.70;;;;;;;5.36;48.39;102268.34;4827362;29;20034;-81
2021/04/24 11:26:40;;;;;;;3.83;0.60;;;;;;;5.41;47.64;102330.22;4826634;29;20100;-80
2021/04/24 11:29:07;;;;;;;2.80;0.60;;;;;;;5.55;48.40;102337.06;4825056;29;20408;-79
2021/04/24 11:31:52;;;;;;;2.03;0.40;;;;;;;5.62;49.01;102338.25;4824279;29;20096;-79
2021/04/24 11:34:42;;;;;;;4.35;0.68;;;;;;;5.51;48.30;102307.13;4829067;29;20054;-80
2021/04/24 11:37:32;;;;;;;2.35;0.40;;;;;;;5.54;49.71;102316.69;4809569;29;20042;-79
2021/04/24 11:40:08;;;;;;;3.05;0.52;;;;;;;5.46;51.53;102325.31;4798418;29;20469;-80
2021/04/24 11:42:37;;;;;;;5.35;0.60;;;;;;;5.47;48.42;102329.72;4832820;29;20487;-82
2021/04/24 11:45:05;;;;;;;2.53;0.50;;;;;;;5.41;48.21;102320.38;4805794;29;20026;-80
2021/04/24 11:47:40;;;;;;;2.75;0.80;;;;;;;5.52;48.73;102319.47;4795267;29;20602;-80
2021/04/24 11:50:08;;;;;;;;;;;;;;;5.60;47.89;102334.88;4837811;29;20037;-80
2021/04/24 11:52:33;;;;;;;1.63;0.57;;;;;;;5.61;49.99;102305.34;4831489;29;19973;-79
2021/04/24 11:54:59;;;;;;;4.53;0.60;;;;;;;5.64;50.92;102318.44;4828227;29;20462;-80
2021/04/24 11:57:26;;;;;;;4.95;0.60;;;;;;;5.67;49.38;102321.84;4826789;29;20073;-78
2021/04/24 11:59:52;;;;;;;1.83;0.50;;;;;;;5.69;48.23;102322.56;4829656;29;20118;-79
2021/04/24 12:02:35;;;;;;;3.80;0.45;;;;;;;5.63;48.80;102316.78;4798956;29;20122;-79
2021/04/24 12:05:13;;;;;;;3.25;0.60;;;;;;;5.65;49.96;102336.16;4818288;29;20038;-81
2021/04/24 12:07:43;;;;;;;1.95;0.60;;;;;;;5.41;49.05;102283.00;4825544;29;20026;-78
2021/04/24 12:10:12;;;;;;;1.95;0.38;;;;;;;5.64;46.99;102317.59;4819196;29;20045;-79
2021/04/24 12:13:07;;;;;;;1.83;0.50;;;;;;;5.75;50.72;102332.72;4818843;29;20035;-79
2021/04/24 12:15:33;;;;;;;2.72;0.50;;;;;;;5.48;47.72;102282.50;4823297;29;20031;-79
2021/04/24 12:18:03;;;;;;;4.45;0.55;;;;;;;5.67;49.15;102319.19;4828379;29;20047;-79
2021/04/24 12:20:43;;;;;;;0.68;0.20;;;;;;;5.62;46.60;102295.50;4824312;29;20038;-78
2021/04/24 12:23:15;;;;;;;2.47;0.43;;;;;;;5.83;48.24;102322.25;4828074;29;20022;-78
2021/04/24 12:25:43;;;;;;;1.67;0.45;;;;;;;5.81;46.43;102318.84;4828466;29;20175;-78
2021/04/24 12:28:10;;;;;;;3.13;0.32;;;;;;;5.83;46.03;102319.56;4829174;29;20074;-79
2021/04/24 12:30:47;;;;;;;4.13;0.30;;;;;;;5.92;46.28;102326.78;4832224;29;20033;-79
2021/04/24 12:33:21;;;;;;;2.55;0.40;;;;;;;5.96;45.05;102301.53;4820212;29;20175;-79
2021/04/24 12:36:03;;;;;;;2.70;0.40;;;;;;;5.93;45.09;102290.25;4824827;29;20050;-78
2021/04/24 12:38:30;;;;;;;4.68;0.60;;;;;;;5.96;44.38;102295.34;4819829;29;20477;-78
2021/04/24 12:40:58;;;;;;;2.78;0.40;;;;;;;6.07;43.37;102327.34;4825370;29;20066;-78
2021/04/24 12:43:25;;;;;;;2.33;0.30;;;;;;;6.03;46.93;102320.56;4817262;29;20045;-80
2021/04/24 12:45:58;;;;;;;2.83;0.70;;;;;;;6.05;46.71;102307.91;4811281;29;20486;-82
2021/04/24 12:48:37;;;;;;;27.25;3.38;;;;;;;6.08;45.63;102279.09;4823821;29;20123;-79
2021/04/24 12:51:04;;;;;;;3.30;0.30;;;;;;;5.80;44.67;102261.91;4832374;29;20026;-80
2021/04/24 12:53:30;;;;;;;5.00;0.60;;;;;;;6.17;45.72;102324.72;4815384;29;20445;-79
2021/04/24 12:56:07;;;;;;;3.65;0.77;;;;;;;6.09;44.76;102310.19;4827622;29;20115;-80
2021/04/24 12:58:35;;;;;;;1.95;0.50;;;;;;;6.00;47.47;102294.13;4827719;29;20035;-79
2021/04/24 13:01:14;;;;;;;2.13;0.43;;;;;;;5.99;49.22;102308.44;4811748;29;20042;-82
2021/04/24 13:03:41;;;;;;;2.08;0.40;;;;;;;5.84;46.82;102300.72;4827926;29;20030;-80
2021/04/24 13:06:18;;;;;;;5.72;0.80;;;;;;;6.00;48.81;102305.63;4833739;29;20065;-79
2021/04/24 13:09:05;;;;;;;7.25;0.70;;;;;;;5.88;45.46;102288.78;4828818;29;20038;-79
2021/04/24 13:11:41;;;;;;;57.95;7.55;;;;;;;5.96;46.63;102306.03;4826401;29;20372;-79
2021/04/24 13:14:09;;;;;;;3.78;0.70;;;;;;;6.05;45.87;102316.75;4818822;29;20114;-79
2021/04/24 13:16:36;;;;;;;2.50;0.50;;;;;;;6.08;45.50;102305.81;4824922;29;20046;-80
2021/04/24 13:19:02;;;;;;;4.03;0.63;;;;;;;5.93;45.04;102252.84;4825198;29;20072;-79
2021/04/24 13:21:32;;;;;;;1.88;0.43;;;;;;;6.07;46.14;102265.88;4832469;29;20037;-79
2021/04/24 13:24:12;;;;;;;4.47;0.50;;;;;;;6.13;45.59;102302.75;4822003;29;20027;-80
2021/04/24 13:27:07;;;;;;;2.75;0.52;;;;;;;6.08;44.38;102262.22;4827675;29;20038;-80
2021/04/24 13:29:40;;;;;;;2.78;0.32;;;;;;;6.11;45.93;102291.34;4801288;29;20033;-78
2021/04/24 13:32:14;;;;;;;23.23;3.67;;;;;;;6.07;45.21;102269.38;4808633;29;20034;-79
2021/04/24 13:34:46;;;;;;;2.53;0.40;;;;;;;6.08;47.30;102260.38;4833874;29;20082;-78
2021/04/24 13:37:24;;;;;;;7.43;0.60;;;;;;;6.16;45.52;102299.81;4824862;29;20034;-78